createdAt,value
2022-11-24T00:01:59.947Z,1.30
2022-11-24T00:07:03.322Z,1.00
2022-11-24T00:12:06.769Z,1.65
2022-11-24T00:17:11.754Z,1.25
2022-11-24T00:22:14.983Z,1.17
2022-11-24T00:27:18.410Z,1.15
2022-11-24T00:32:23.259Z,1.35
2022-11-24T00:37:26.716Z,1.60
2022-11-24T00:42:30.176Z,1.15
2022-11-24T00:47:34.895Z,0.85
2022-11-24T00:52:38.214Z,1.08
2022-11-24T00:57:42.561Z,1.33
2022-11-24T01:02:49.578Z,1.00
2022-11-24T01:07:53.087Z,1.80
2022-11-24T01:12:56.590Z,1.10
2022-11-24T01:18:01.400Z,1.20
2022-11-24T01:23:04.815Z,1.17
2022-11-24T01:28:08.369Z,1.70
2022-11-24T01:33:13.420Z,1.30
2022-11-24T01:38:16.877Z,1.00
2022-11-24T01:43:22.400Z,0.90
2022-11-24T01:48:31.511Z,0.60
2022-11-24T01:53:34.871Z,0.93
2022-11-24T01:58:41.905Z,0.60
2022-11-24T02:03:49.611Z,0.80
2022-11-24T02:08:57.831Z,0.88
2022-11-24T02:14:02.656Z,0.93
2022-11-24T02:19:14.787Z,0.90
2022-11-24T02:24:25.753Z,0.95
2022-11-24T02:29:30.516Z,0.90
2022-11-24T02:34:36.285Z,0.98
2022-11-24T02:39:39.886Z,0.80
2022-11-24T02:44:49.400Z,1.30
2022-11-24T02:49:52.773Z,1.02
2022-11-24T02:54:56.147Z,1.00
2022-11-24T03:00:01.880Z,0.90
2022-11-24T03:05:07.638Z,1.00
2022-11-24T03:10:11.237Z,1.20
2022-11-24T03:15:26.541Z,1.07
2022-11-24T03:20:30.723Z,1.10
2022-11-24T03:25:36.250Z,1.00
2022-11-24T03:30:49.135Z,1.20
2022-11-24T03:35:52.550Z,0.98
2022-11-24T03:40:55.931Z,1.27
2022-11-24T03:46:00.636Z,1.20
2022-11-24T03:51:04.490Z,1.13
2022-11-24T03:56:08.253Z,0.88
2022-11-24T04:01:14.042Z,0.95
2022-11-24T04:06:17.409Z,1.03
2022-11-24T04:11:38.214Z,1.30
2022-11-24T04:16:43.029Z,1.07
2022-11-24T04:21:47.528Z,1.17
2022-11-24T04:26:50.940Z,1.52
2022-11-24T04:31:55.705Z,1.05
2022-11-24T04:36:59.070Z,1.15
2022-11-24T04:42:02.499Z,1.05
2022-11-24T04:47:07.539Z,1.17
2022-11-24T04:52:10.839Z,1.23
2022-11-24T04:57:17.849Z,1.15
2022-11-24T05:02:25.326Z,1.48
2022-11-24T05:07:29.908Z,1.35
2022-11-24T05:12:33.278Z,1.30
2022-11-24T05:17:40.183Z,1.03
2022-11-24T05:22:43.631Z,1.13
2022-11-24T05:27:47.102Z,1.58
2022-11-24T05:32:52.014Z,1.02
2022-11-24T05:37:55.323Z,1.10
2022-11-24T05:43:11.464Z,1.60
2022-11-24T05:48:16.902Z,1.50
2022-11-24T05:53:20.229Z,1.63
2022-11-24T05:58:24.525Z,1.35
2022-11-24T06:03:29.277Z,1.50
2022-11-24T06:08:32.803Z,2.70
2022-11-24T06:13:36.227Z,2.15
2022-11-24T06:18:42.451Z,1.90
2022-11-24T06:23:48.497Z,1.73
2022-11-24T06:28:54.073Z,1.88
2022-11-24T06:33:58.776Z,2.20
2022-11-24T06:39:03.224Z,3.00
2022-11-24T06:44:20.962Z,1.77
2022-11-24T06:49:25.588Z,2.30
2022-11-24T06:54:30.932Z,1.98
2022-11-24T06:59:35.194Z,1.85
2022-11-24T07:04:40.006Z,1.67
2022-11-24T07:09:49.259Z,1.67
2022-11-24T07:14:53.608Z,2.15
2022-11-24T07:19:59.346Z,2.03
2022-11-24T07:25:04.889Z,2.08
2022-11-24T07:30:14.798Z,2.97
2022-11-24T07:35:23.971Z,2.22
2022-11-24T07:40:28.554Z,1.33
2022-11-24T07:45:34.014Z,1.98
2022-11-24T07:50:38.839Z,1.80
2022-11-24T07:55:43.293Z,1.70
2022-11-24T08:00:46.703Z,1.45
2022-11-24T08:11:40.126Z,1.25
2022-11-24T08:16:43.507Z,1.80
2022-11-24T08:21:48.371Z,1.23
2022-11-24T08:26:51.733Z,0.93
2022-11-24T08:31:57.302Z,1.52
2022-11-24T08:37:02.008Z,1.10
2022-11-24T08:42:05.737Z,1.58
2022-11-24T08:47:09.348Z,1.00
2022-11-24T08:52:14.111Z,1.63
2022-11-24T08:57:21.829Z,1.50
2022-11-24T09:02:25.522Z,1.10
2022-11-24T09:07:30.436Z,1.90
2022-11-24T09:12:33.703Z,1.33
2022-11-24T09:17:36.921Z,1.35
2022-11-24T09:22:43.233Z,0.90
2022-11-24T09:27:46.425Z,1.80
2022-11-24T09:32:49.849Z,1.30
2022-11-24T09:37:54.595Z,1.17
2022-11-24T09:43:01.923Z,1.05
2022-11-24T09:48:11.247Z,1.27
2022-11-24T09:53:23.425Z,1.02
2022-11-24T09:58:36.829Z,0.70
2022-11-24T10:03:44.615Z,0.80
2022-11-24T10:09:14.211Z,0.70
2022-11-24T10:14:38.435Z,0.60
2022-11-24T10:19:48.549Z,0.70
2022-11-24T10:25:10.409Z,0.90
2022-11-24T10:30:16.986Z,0.63
2022-11-24T10:35:22.569Z,0.77
2022-11-24T10:46:07.525Z,0.63
2022-11-24T10:51:37.098Z,0.40
2022-11-24T10:56:42.898Z,0.60
2022-11-24T11:01:46.230Z,0.50
2022-11-24T11:06:50.086Z,0.65
2022-11-24T11:11:55.572Z,0.73
2022-11-24T11:16:59.639Z,0.95
2022-11-24T11:22:05.262Z,0.70
2022-11-24T11:27:19.586Z,0.88
2022-11-24T11:37:49.931Z,1.20
2022-11-24T11:43:03.067Z,0.60
2022-11-24T11:48:24.211Z,0.80
2022-11-24T11:53:33.716Z,1.27
2022-11-24T11:59:02.705Z,1.00
2022-11-24T12:04:24.142Z,1.02
2022-11-24T12:09:46.988Z,0.88
2022-11-24T12:15:09.041Z,1.10
2022-11-24T12:20:27.747Z,0.93
2022-11-24T12:25:37.386Z,1.10
2022-11-24T12:30:51.498Z,0.63
2022-11-24T12:36:04.529Z,0.93
2022-11-24T12:41:45.795Z,0.88
2022-11-24T12:46:56.733Z,0.70
2022-11-24T12:52:05.413Z,0.55
2022-11-24T12:57:18.539Z,0.90
2022-11-24T13:02:31.322Z,0.90
2022-11-24T13:07:44.121Z,0.80
2022-11-24T13:12:59.071Z,1.35
2022-11-24T13:18:10.603Z,1.23
2022-11-24T13:23:26.269Z,1.00
2022-11-24T13:29:06.157Z,1.00
2022-11-24T13:35:05.300Z,1.23
2022-11-24T13:40:45.888Z,0.77
2022-11-24T13:45:57.869Z,0.90
2022-11-24T13:51:24.158Z,0.90
2022-11-24T13:56:30.851Z,0.90
2022-11-24T14:01:37.158Z,0.88
2022-11-24T14:06:45.356Z,0.80
2022-11-24T14:12:00.106Z,1.10
2022-11-24T14:17:17.710Z,1.30
2022-11-24T14:22:26.938Z,0.77
2022-11-24T14:27:51.271Z,1.05
2022-11-24T14:32:58.743Z,0.70
2022-11-24T14:38:15.098Z,1.23
2022-11-24T14:43:28.188Z,1.00
2022-11-24T14:48:36.433Z,0.90
2022-11-24T14:53:56.446Z,1.33
2022-11-24T14:59:00.861Z,0.90
2022-11-24T15:04:54.414Z,1.10
2022-11-24T15:09:54.168Z,1.02
2022-11-24T15:15:01.753Z,1.15
2022-11-24T15:20:11.611Z,1.17
2022-11-24T15:25:30.645Z,0.93
2022-11-24T15:30:36.613Z,1.25
2022-11-24T15:35:40.105Z,1.58
2022-11-24T15:40:46.843Z,1.02
2022-11-24T15:45:50.191Z,1.00
2022-11-24T15:50:55.677Z,0.90
2022-11-24T15:56:04.943Z,1.00
2022-11-24T16:01:08.395Z,0.93
2022-11-24T16:06:22.167Z,1.10
2022-11-24T16:11:29.256Z,1.40
2022-11-24T16:16:32.669Z,1.00
2022-11-24T16:21:36.256Z,0.90
2022-11-24T16:26:41.030Z,1.17
2022-11-24T16:31:47.304Z,1.38
2022-11-24T16:36:51.498Z,1.08
2022-11-24T16:41:56.246Z,1.23
2022-11-24T16:46:59.573Z,1.38
2022-11-24T16:52:03.271Z,1.77
2022-11-24T16:57:14.503Z,1.70
2022-11-24T17:02:18.309Z,1.48
2022-11-24T17:07:21.805Z,1.83
2022-11-24T17:12:27.383Z,3.28
2022-11-24T17:17:30.709Z,2.72
2022-11-24T17:22:34.076Z,2.00
2022-11-24T17:27:57.921Z,1.90
2022-11-24T17:33:02.438Z,2.60
2022-11-24T17:38:05.838Z,3.80
2022-11-24T17:43:14.755Z,3.67
2022-11-24T17:48:19.112Z,2.13
2022-11-24T17:53:22.391Z,1.87
2022-11-24T17:58:32.743Z,1.90
2022-11-24T18:03:36.262Z,1.87
2022-11-24T18:08:45.381Z,2.80
2022-11-24T18:14:05.770Z,3.20
2022-11-24T18:19:11.177Z,3.23
2022-11-24T18:24:18.563Z,2.47
2022-11-24T18:29:25.849Z,2.23
2022-11-24T18:34:30.243Z,2.53
2022-11-24T18:39:33.538Z,2.30
2022-11-24T18:44:39.258Z,1.60
2022-11-24T18:49:43.579Z,1.57
2022-11-24T18:54:46.881Z,1.90
2022-11-24T18:59:51.664Z,1.67
2022-11-24T19:04:55.189Z,2.27
2022-11-24T19:09:59.556Z,1.90
2022-11-24T19:15:05.979Z,2.20
2022-11-24T19:20:14.789Z,3.50
2022-11-24T19:25:18.931Z,4.07
2022-11-24T19:30:23.804Z,3.40
2022-11-24T19:35:28.160Z,3.50
2022-11-24T19:40:31.638Z,4.40
2022-11-24T19:45:36.631Z,3.77
2022-11-24T19:50:41.091Z,3.70
2022-11-24T19:55:44.510Z,4.50
2022-11-24T20:00:50.359Z,3.73
2022-11-24T20:05:56.614Z,4.57
2022-11-24T20:11:07.735Z,5.03
2022-11-24T20:16:15.233Z,3.70
2022-11-24T20:21:21.395Z,4.30
2022-11-24T20:26:29.400Z,3.23
2022-11-24T20:31:40.339Z,3.07
2022-11-24T20:36:46.068Z,2.33
2022-11-24T20:41:54.433Z,2.10
2022-11-24T20:47:03.026Z,1.80
2022-11-24T20:52:06.692Z,2.13
2022-11-24T20:57:10.319Z,1.90
2022-11-24T21:02:15.224Z,2.10
2022-11-24T21:07:19.735Z,2.30
2022-11-24T21:12:23.326Z,2.13
2022-11-24T21:17:28.210Z,2.60
2022-11-24T21:22:31.605Z,3.20
2022-11-24T21:27:35.159Z,3.53
2022-11-24T21:32:40.139Z,3.10
2022-11-24T21:37:43.578Z,4.93
2022-11-24T21:42:47.024Z,4.60
2022-11-24T21:48:01.482Z,3.77
2022-11-24T21:53:04.902Z,4.33
2022-11-24T21:58:10.411Z,4.60
2022-11-24T22:03:21.852Z,3.40
2022-11-24T22:08:26.457Z,3.53
2022-11-24T22:13:31.046Z,3.33
2022-11-24T22:18:38.019Z,3.33
2022-11-24T22:23:41.612Z,3.53
2022-11-24T22:28:46.262Z,3.17
2022-11-24T22:33:55.586Z,6.17
2022-11-24T22:39:03.118Z,4.13
2022-11-24T22:44:07.859Z,3.97
2022-11-24T22:49:13.379Z,4.40
2022-11-24T22:54:18.901Z,4.60
2022-11-24T22:59:24.239Z,4.43
2022-11-24T23:04:42.431Z,4.17
2022-11-24T23:09:48.133Z,3.47
2022-11-24T23:14:51.485Z,3.87
2022-11-24T23:19:56.122Z,3.93
2022-11-24T23:25:02.023Z,4.43
2022-11-24T23:30:06.399Z,4.50
2022-11-24T23:35:13.949Z,4.27
2022-11-24T23:40:17.783Z,4.10
2022-11-24T23:45:21.274Z,4.33
2022-11-24T23:50:26.537Z,4.60
2022-11-24T23:55:29.883Z,4.63
